sensor_id;sensor_type;location;lat;lon;timestamp;pressure;altitude;pressure_sealevel;temperature;humidity
6020;BME280;3038;51.122;6.840;2023-04-09T00:00:44;102203.75;;;8.12;84.14
6020;BME280;3038;51.122;6.840;2023-04-09T00:03:09;102205.25;;;8.04;84.61
6020;BME280;3038;51.122;6.840;2023-04-09T00:05:39;102208.09;;;8.01;84.74
6020;BME280;3038;51.122;6.840;2023-04-09T00:08:05;102206.84;;;7.93;84.82
6020;BME280;3038;51.122;6.840;2023-04-09T00:10:32;102205.44;;;7.88;84.52
6020;BME280;3038;51.122;6.840;2023-04-09T00:12:58;102202.50;;;7.80;84.56
6020;BME280;3038;51.122;6.840;2023-04-09T00:15:23;102202.28;;;7.70;84.90
6020;BME280;3038;51.122;6.840;2023-04-09T00:17:48;102198.34;;;7.63;85.52
6020;BME280;3038;51.122;6.840;2023-04-09T00:20:14;102205.84;;;7.56;85.86
6020;BME280;3038;51.122;6.840;2023-04-09T00:22:40;102201.81;;;7.51;85.29
6020;BME280;3038;51.122;6.840;2023-04-09T00:25:06;102198.66;;;7.45;85.75
6020;BME280;3038;51.122;6.840;2023-04-09T00:27:34;102196.31;;;7.41;85.79
6020;BME280;3038;51.122;6.840;2023-04-09T00:30:00;102195.00;;;7.34;85.98
6020;BME280;3038;51.122;6.840;2023-04-09T00:32:25;102197.34;;;7.26;85.63
6020;BME280;3038;51.122;6.840;2023-04-09T00:34:50;102195.84;;;7.21;86.39
6020;BME280;3038;51.122;6.840;2023-04-09T00:37:16;102198.13;;;7.13;86.28
6020;BME280;3038;51.122;6.840;2023-04-09T00:39:41;102204.56;;;7.09;86.30
6020;BME280;3038;51.122;6.840;2023-04-09T00:42:06;102197.25;;;7.00;86.33
6020;BME280;3038;51.122;6.840;2023-04-09T00:44:32;102197.47;;;6.97;86.22
6020;BME280;3038;51.122;6.840;2023-04-09T00:46:58;102199.56;;;6.92;86.23
6020;BME280;3038;51.122;6.840;2023-04-09T00:49:24;102192.78;;;6.88;86.24
6020;BME280;3038;51.122;6.840;2023-04-09T00:51:51;102191.47;;;6.81;86.36
6020;BME280;3038;51.122;6.840;2023-04-09T00:54:16;102191.88;;;6.75;86.62
6020;BME280;3038;51.122;6.840;2023-04-09T00:56:42;102192.06;;;6.72;86.72
6020;BME280;3038;51.122;6.840;2023-04-09T00:59:10;102189.72;;;6.67;87.34
6020;BME280;3038;51.122;6.840;2023-04-09T01:01:38;102190.03;;;6.62;87.51
6020;BME280;3038;51.122;6.840;2023-04-09T01:04:04;102196.44;;;6.58;87.77
6020;BME280;3038;51.122;6.840;2023-04-09T01:06:44;102195.03;;;6.53;87.81
6020;BME280;3038;51.122;6.840;2023-04-09T01:11:45;102186.00;;;6.42;88.08
6020;BME280;3038;51.122;6.840;2023-04-09T01:14:26;102188.00;;;6.39;88.28
6020;BME280;3038;51.122;6.840;2023-04-09T01:17:05;102189.22;;;6.33;88.54
6020;BME280;3038;51.122;6.840;2023-04-09T01:20:00;102180.44;;;6.33;88.43
6020;BME280;3038;51.122;6.840;2023-04-09T01:23:00;102181.59;;;6.29;88.53
6020;BME280;3038;51.122;6.840;2023-04-09T01:30:49;102177.66;;;6.22;88.14
6020;BME280;3038;51.122;6.840;2023-04-09T01:33:16;102180.47;;;6.18;88.17
6020;BME280;3038;51.122;6.840;2023-04-09T01:35:43;102185.00;;;6.16;88.15
6020;BME280;3038;51.122;6.840;2023-04-09T01:38:11;102193.00;;;6.15;88.47
6020;BME280;3038;51.122;6.840;2023-04-09T01:40:37;102188.75;;;6.12;88.66
6020;BME280;3038;51.122;6.840;2023-04-09T01:43:05;102185.28;;;6.12;88.59
6020;BME280;3038;51.122;6.840;2023-04-09T01:45:31;102188.75;;;6.12;89.01
6020;BME280;3038;51.122;6.840;2023-04-09T01:47:57;102194.81;;;6.14;89.56
6020;BME280;3038;51.122;6.840;2023-04-09T01:50:23;102184.16;;;6.16;89.47
6020;BME280;3038;51.122;6.840;2023-04-09T01:52:48;102181.41;;;6.17;89.27
6020;BME280;3038;51.122;6.840;2023-04-09T01:55:14;102185.75;;;6.18;89.21
6020;BME280;3038;51.122;6.840;2023-04-09T01:57:40;102179.72;;;6.16;88.74
6020;BME280;3038;51.122;6.840;2023-04-09T02:00:06;102174.44;;;6.16;89.30
6020;BME280;3038;51.122;6.840;2023-04-09T02:02:36;102179.72;;;6.16;89.11
6020;BME280;3038;51.122;6.840;2023-04-09T02:05:06;102179.53;;;6.20;89.15
6020;BME280;3038;51.122;6.840;2023-04-09T02:07:42;102174.06;;;6.23;89.08
6020;BME280;3038;51.122;6.840;2023-04-09T02:10:10;102173.69;;;6.29;88.79
6020;BME280;3038;51.122;6.840;2023-04-09T02:12:37;102176.59;;;6.38;89.02
6020;BME280;3038;51.122;6.840;2023-04-09T02:15:07;102183.84;;;6.49;88.50
6020;BME280;3038;51.122;6.840;2023-04-09T02:17:32;102184.00;;;6.60;88.42
6020;BME280;3038;51.122;6.840;2023-04-09T02:19:58;102183.22;;;6.73;87.71
6020;BME280;3038;51.122;6.840;2023-04-09T02:22:23;102175.63;;;6.81;87.48
6020;BME280;3038;51.122;6.840;2023-04-09T02:24:48;102176.94;;;6.88;86.94
6020;BME280;3038;51.122;6.840;2023-04-09T02:27:16;102176.53;;;6.94;86.50
6020;BME280;3038;51.122;6.840;2023-04-09T02:29:42;102173.78;;;6.95;86.39
6020;BME280;3038;51.122;6.840;2023-04-09T02:32:07;102179.16;;;6.94;86.32
6020;BME280;3038;51.122;6.840;2023-04-09T02:34:35;102175.25;;;6.87;86.12
6020;BME280;3038;51.122;6.840;2023-04-09T02:37:00;102175.84;;;6.78;86.51
6020;BME280;3038;51.122;6.840;2023-04-09T02:39:26;102174.13;;;6.77;86.76
6020;BME280;3038;51.122;6.840;2023-04-09T02:41:51;102167.94;;;6.78;86.54
6020;BME280;3038;51.122;6.840;2023-04-09T02:44:17;102171.72;;;6.74;86.44
6020;BME280;3038;51.122;6.840;2023-04-09T02:46:43;102156.56;;;6.63;86.43
6020;BME280;3038;51.122;6.840;2023-04-09T02:49:08;102163.28;;;6.54;86.76
6020;BME280;3038;51.122;6.840;2023-04-09T02:51:34;102160.28;;;6.46;86.56
6020;BME280;3038;51.122;6.840;2023-04-09T02:54:00;102164.34;;;6.37;86.76
6020;BME280;3038;51.122;6.840;2023-04-09T02:56:25;102155.31;;;6.27;86.90
6020;BME280;3038;51.122;6.840;2023-04-09T02:58:51;102157.88;;;6.14;87.51
6020;BME280;3038;51.122;6.840;2023-04-09T03:01:20;102164.66;;;6.04;87.40
6020;BME280;3038;51.122;6.840;2023-04-09T03:03:46;102148.56;;;5.95;87.50
6020;BME280;3038;51.122;6.840;2023-04-09T03:06:12;102155.03;;;5.89;87.74
6020;BME280;3038;51.122;6.840;2023-04-09T03:08:37;102152.66;;;5.84;87.97
6020;BME280;3038;51.122;6.840;2023-04-09T03:11:02;102149.47;;;5.79;87.72
6020;BME280;3038;51.122;6.840;2023-04-09T03:13:28;102151.47;;;5.76;87.59
6020;BME280;3038;51.122;6.840;2023-04-09T03:15:53;102142.91;;;5.72;87.78
6020;BME280;3038;51.122;6.840;2023-04-09T03:18:19;102144.13;;;5.66;88.03
6020;BME280;3038;51.122;6.840;2023-04-09T03:20:44;102151.44;;;5.61;87.85
6020;BME280;3038;51.122;6.840;2023-04-09T03:23:10;102145.50;;;5.58;87.80
6020;BME280;3038;51.122;6.840;2023-04-09T03:25:37;102147.56;;;5.53;88.23
6020;BME280;3038;51.122;6.840;2023-04-09T03:28:05;102144.28;;;5.49;88.41
6020;BME280;3038;51.122;6.840;2023-04-09T03:30:30;102140.97;;;5.46;88.68
6020;BME280;3038;51.122;6.840;2023-04-09T03:32:56;102145.59;;;5.42;88.96
6020;BME280;3038;51.122;6.840;2023-04-09T03:35:22;102140.59;;;5.37;88.54
6020;BME280;3038;51.122;6.840;2023-04-09T03:37:47;102143.41;;;5.34;88.96
6020;BME280;3038;51.122;6.840;2023-04-09T03:40:12;102136.53;;;5.32;89.05
6020;BME280;3038;51.122;6.840;2023-04-09T03:42:38;102132.28;;;5.29;88.70
6020;BME280;3038;51.122;6.840;2023-04-09T03:45:04;102130.03;;;5.23;88.46
6020;BME280;3038;51.122;6.840;2023-04-09T03:47:30;102127.47;;;5.22;88.75
6020;BME280;3038;51.122;6.840;2023-04-09T03:49:57;102128.50;;;5.19;88.79
6020;BME280;3038;51.122;6.840;2023-04-09T03:52:22;102125.09;;;5.17;88.86
6020;BME280;3038;51.122;6.840;2023-04-09T03:54:48;102129.72;;;5.13;89.22
6020;BME280;3038;51.122;6.840;2023-04-09T03:57:13;102130.75;;;5.11;89.11
6020;BME280;3038;51.122;6.840;2023-04-09T03:59:39;102131.69;;;5.10;89.21
6020;BME280;3038;51.122;6.840;2023-04-09T04:02:07;102137.78;;;5.10;88.73
6020;BME280;3038;51.122;6.840;2023-04-09T04:04:32;102130.94;;;5.08;88.96
6020;BME280;3038;51.122;6.840;2023-04-09T04:06:57;102133.63;;;5.06;88.35
6020;BME280;3038;51.122;6.840;2023-04-09T04:09:25;102134.75;;;5.02;88.49
6020;BME280;3038;51.122;6.840;2023-04-09T04:11:50;102138.53;;;4.98;88.75
6020;BME280;3038;51.122;6.840;2023-04-09T04:14:16;102136.16;;;4.94;88.97
6020;BME280;3038;51.122;6.840;2023-04-09T04:16:41;102133.69;;;4.90;88.50
6020;BME280;3038;51.122;6.840;2023-04-09T04:19:06;102138.28;;;4.87;88.56
6020;BME280;3038;51.122;6.840;2023-04-09T04:21:32;102131.47;;;4.83;88.54
6020;BME280;3038;51.122;6.840;2023-04-09T04:23:57;102133.38;;;4.81;88.77
6020;BME280;3038;51.122;6.840;2023-04-09T04:26:23;102128.19;;;4.79;89.04
6020;BME280;3038;51.122;6.840;2023-04-09T04:28:48;102134.38;;;4.78;88.68
6020;BME280;3038;51.122;6.840;2023-04-09T04:31:13;102124.88;;;4.76;88.99
6020;BME280;3038;51.122;6.840;2023-04-09T04:33:40;102132.88;;;4.74;88.67
6020;BME280;3038;51.122;6.840;2023-04-09T04:36:12;102135.56;;;4.73;88.74
6020;BME280;3038;51.122;6.840;2023-04-09T04:38:39;102138.31;;;4.71;88.72
6020;BME280;3038;51.122;6.840;2023-04-09T04:41:06;102138.41;;;4.70;88.41
6020;BME280;3038;51.122;6.840;2023-04-09T04:43:31;102137.63;;;4.68;88.17
6020;BME280;3038;51.122;6.840;2023-04-09T04:45:57;102145.50;;;4.68;88.14
6020;BME280;3038;51.122;6.840;2023-04-09T04:48:23;102150.03;;;4.66;88.43
6020;BME280;3038;51.122;6.840;2023-04-09T04:50:56;102143.97;;;4.63;87.77
6020;BME280;3038;51.122;6.840;2023-04-09T04:53:21;102141.44;;;4.62;88.26
6020;BME280;3038;51.122;6.840;2023-04-09T04:55:47;102145.88;;;4.61;87.77
6020;BME280;3038;51.122;6.840;2023-04-09T04:58:12;102145.78;;;4.63;88.32
6020;BME280;3038;51.122;6.840;2023-04-09T05:00:37;102146.63;;;4.63;87.95
6020;BME280;3038;51.122;6.840;2023-04-09T05:03:03;102146.56;;;4.65;87.67
6020;BME280;3038;51.122;6.840;2023-04-09T05:05:28;102148.13;;;4.68;87.35
6020;BME280;3038;51.122;6.840;2023-04-09T05:07:53;102160.53;;;4.66;87.82
6020;BME280;3038;51.122;6.840;2023-04-09T05:10:19;102153.75;;;4.61;87.96
6020;BME280;3038;51.122;6.840;2023-04-09T05:12:44;102154.94;;;4.56;87.81
6020;BME280;3038;51.122;6.840;2023-04-09T05:15:10;102154.28;;;4.52;87.73
6020;BME280;3038;51.122;6.840;2023-04-09T05:17:41;102154.63;;;4.46;87.62
6020;BME280;3038;51.122;6.840;2023-04-09T05:20:07;102152.16;;;4.43;88.32
6020;BME280;3038;51.122;6.840;2023-04-09T05:22:33;102146.88;;;4.43;88.48
6020;BME280;3038;51.122;6.840;2023-04-09T05:24:58;102154.78;;;4.43;88.31
6020;BME280;3038;51.122;6.840;2023-04-09T05:27:23;102160.03;;;4.43;88.34
6020;BME280;3038;51.122;6.840;2023-04-09T05:29:52;102157.66;;;4.38;88.79
6020;BME280;3038;51.122;6.840;2023-04-09T05:32:18;102156.66;;;4.41;87.90
6020;BME280;3038;51.122;6.840;2023-04-09T05:34:43;102163.59;;;4.42;88.51
6020;BME280;3038;51.122;6.840;2023-04-09T05:37:12;102164.44;;;4.43;89.03
6020;BME280;3038;51.122;6.840;2023-04-09T05:39:37;102156.47;;;4.44;88.79
6020;BME280;3038;51.122;6.840;2023-04-09T05:42:03;102158.84;;;4.49;88.88
6020;BME280;3038;51.122;6.840;2023-04-09T05:44:28;102161.16;;;4.55;88.14
6020;BME280;3038;51.122;6.840;2023-04-09T05:46:54;102161.06;;;4.56;88.39
6020;BME280;3038;51.122;6.840;2023-04-09T05:49:19;102160.72;;;4.62;88.02
6020;BME280;3038;51.122;6.840;2023-04-09T05:51:44;102159.34;;;4.71;87.84
6020;BME280;3038;51.122;6.840;2023-04-09T05:54:12;102163.25;;;4.80;87.82
6020;BME280;3038;51.122;6.840;2023-04-09T05:56:38;102162.91;;;4.86;87.21
6020;BME280;3038;51.122;6.840;2023-04-09T05:59:03;102155.41;;;4.94;87.33
6020;BME280;3038;51.122;6.840;2023-04-09T06:01:29;102149.78;;;5.00;87.34
6020;BME280;3038;51.122;6.840;2023-04-09T06:03:54;102149.25;;;5.09;86.43
6020;BME280;3038;51.122;6.840;2023-04-09T06:06:19;102152.31;;;5.18;86.37
6020;BME280;3038;51.122;6.840;2023-04-09T06:08:45;102155.50;;;5.23;86.47
6020;BME280;3038;51.122;6.840;2023-04-09T06:11:11;102148.19;;;5.28;86.25
6020;BME280;3038;51.122;6.840;2023-04-09T06:13:37;102151.19;;;5.36;86.25
6020;BME280;3038;51.122;6.840;2023-04-09T06:16:04;102154.25;;;5.44;85.62
6020;BME280;3038;51.122;6.840;2023-04-09T06:18:30;102155.38;;;5.54;85.67
6020;BME280;3038;51.122;6.840;2023-04-09T06:21:06;102147.88;;;5.62;85.20
6020;BME280;3038;51.122;6.840;2023-04-09T06:23:32;102158.88;;;5.69;84.72
6020;BME280;3038;51.122;6.840;2023-04-09T06:25:59;102164.53;;;5.77;84.49
6020;BME280;3038;51.122;6.840;2023-04-09T06:28:25;102166.78;;;5.83;83.90
6020;BME280;3038;51.122;6.840;2023-04-09T06:30:50;102170.75;;;5.90;84.11
6020;BME280;3038;51.122;6.840;2023-04-09T06:33:17;102165.03;;;5.98;83.12
6020;BME280;3038;51.122;6.840;2023-04-09T06:35:43;102162.00;;;6.04;82.32
6020;BME280;3038;51.122;6.840;2023-04-09T06:38:08;102165.03;;;6.12;82.59
6020;BME280;3038;51.122;6.840;2023-04-09T06:40:36;102160.97;;;6.21;81.72
6020;BME280;3038;51.122;6.840;2023-04-09T06:43:01;102165.69;;;6.30;81.85
6020;BME280;3038;51.122;6.840;2023-04-09T06:45:27;102166.91;;;6.39;81.97
6020;BME280;3038;51.122;6.840;2023-04-09T06:47:53;102166.22;;;6.50;81.70
6020;BME280;3038;51.122;6.840;2023-04-09T06:50:18;102170.25;;;6.55;81.91
6020;BME280;3038;51.122;6.840;2023-04-09T06:52:44;102175.03;;;6.63;81.70
6020;BME280;3038;51.122;6.840;2023-04-09T06:55:09;102174.34;;;6.74;81.51
6020;BME280;3038;51.122;6.840;2023-04-09T06:57:35;102171.97;;;6.83;81.27
6020;BME280;3038;51.122;6.840;2023-04-09T07:00:02;102174.72;;;6.94;80.66
6020;BME280;3038;51.122;6.840;2023-04-09T07:02:28;102177.44;;;7.07;80.19
6020;BME280;3038;51.122;6.840;2023-04-09T07:04:53;102180.00;;;7.21;80.79
6020;BME280;3038;51.122;6.840;2023-04-09T07:07:21;102179.38;;;7.31;79.39
6020;BME280;3038;51.122;6.840;2023-04-09T07:09:47;102178.53;;;7.43;79.24
6020;BME280;3038;51.122;6.840;2023-04-09T07:12:12;102186.59;;;7.54;78.96
6020;BME280;3038;51.122;6.840;2023-04-09T07:14:38;102186.81;;;7.64;79.33
6020;BME280;3038;51.122;6.840;2023-04-09T07:17:03;102179.00;;;7.75;78.26
6020;BME280;3038;51.122;6.840;2023-04-09T07:19:28;102183.22;;;7.90;77.54
6020;BME280;3038;51.122;6.840;2023-04-09T07:21:55;102186.81;;;8.02;77.91
6020;BME280;3038;51.122;6.840;2023-04-09T07:24:20;102185.75;;;8.17;77.69
6020;BME280;3038;51.122;6.840;2023-04-09T07:26:45;102190.16;;;8.30;78.07
6020;BME280;3038;51.122;6.840;2023-04-09T07:29:11;102189.34;;;8.42;76.74
6020;BME280;3038;51.122;6.840;2023-04-09T07:31:36;102192.91;;;8.54;76.26
6020;BME280;3038;51.122;6.840;2023-04-09T07:34:04;102192.88;;;8.66;75.76
6020;BME280;3038;51.122;6.840;2023-04-09T07:36:30;102187.50;;;8.79;75.32
6020;BME280;3038;51.122;6.840;2023-04-09T07:38:56;102187.47;;;8.92;75.05
6020;BME280;3038;51.122;6.840;2023-04-09T07:41:21;102192.09;;;9.01;72.65
6020;BME280;3038;51.122;6.840;2023-04-09T07:43:46;102188.50;;;9.13;73.11
6020;BME280;3038;51.122;6.840;2023-04-09T07:46:18;102185.66;;;9.27;71.48
6020;BME280;3038;51.122;6.840;2023-04-09T07:48:43;102187.75;;;9.35;71.11
6020;BME280;3038;51.122;6.840;2023-04-09T07:51:09;102184.41;;;9.44;71.15
6020;BME280;3038;51.122;6.840;2023-04-09T07:53:35;102190.69;;;9.55;71.20
6020;BME280;3038;51.122;6.840;2023-04-09T07:56:01;102193.63;;;9.63;69.89
6020;BME280;3038;51.122;6.840;2023-04-09T07:58:28;102192.03;;;9.71;69.47
6020;BME280;3038;51.122;6.840;2023-04-09T08:00:54;102190.88;;;9.87;69.81
6020;BME280;3038;51.122;6.840;2023-04-09T08:03:19;102193.31;;;10.01;68.61
6020;BME280;3038;51.122;6.840;2023-04-09T08:05:45;102198.13;;;10.07;67.83
6020;BME280;3038;51.122;6.840;2023-04-09T08:08:11;102195.00;;;10.13;68.07
6020;BME280;3038;51.122;6.840;2023-04-09T08:10:36;102197.44;;;10.27;67.52
6020;BME280;3038;51.122;6.840;2023-04-09T08:13:01;102195.72;;;10.38;66.76
6020;BME280;3038;51.122;6.840;2023-04-09T08:15:27;102190.31;;;10.50;66.71
6020;BME280;3038;51.122;6.840;2023-04-09T08:17:52;102195.34;;;10.65;65.72
6020;BME280;3038;51.122;6.840;2023-04-09T08:20:17;102191.31;;;10.81;66.58
6020;BME280;3038;51.122;6.840;2023-04-09T08:22:43;102187.28;;;10.87;65.08
6020;BME280;3038;51.122;6.840;2023-04-09T08:25:09;102193.81;;;10.94;64.02
6020;BME280;3038;51.122;6.840;2023-04-09T08:27:34;102190.50;;;11.02;64.32
6020;BME280;3038;51.122;6.840;2023-04-09T08:30:01;102189.56;;;11.03;63.58
6020;BME280;3038;51.122;6.840;2023-04-09T08:32:26;102193.63;;;11.07;63.09
6020;BME280;3038;51.122;6.840;2023-04-09T08:34:52;102193.97;;;11.14;63.92
6020;BME280;3038;51.122;6.840;2023-04-09T08:37:17;102189.91;;;11.30;62.82
6020;BME280;3038;51.122;6.840;2023-04-09T08:39:42;102189.41;;;11.37;62.58
6020;BME280;3038;51.122;6.840;2023-04-09T08:42:08;102192.97;;;11.47;62.37
6020;BME280;3038;51.122;6.840;2023-04-09T08:44:36;102189.53;;;11.56;61.91
6020;BME280;3038;51.122;6.840;2023-04-09T08:47:07;102196.25;;;11.60;61.28
6020;BME280;3038;51.122;6.840;2023-04-09T08:49:34;102189.31;;;11.69;61.95
6020;BME280;3038;51.122;6.840;2023-04-09T08:52:00;102190.94;;;11.81;61.29
6020;BME280;3038;51.122;6.840;2023-04-09T08:54:25;102196.34;;;11.91;61.65
6020;BME280;3038;51.122;6.840;2023-04-09T08:56:51;102193.19;;;12.06;60.95
6020;BME280;3038;51.122;6.840;2023-04-09T08:59:16;102196.88;;;12.15;61.31
6020;BME280;3038;51.122;6.840;2023-04-09T09:01:45;102196.66;;;12.38;60.33
6020;BME280;3038;51.122;6.840;2023-04-09T09:04:13;102191.94;;;12.51;59.19
6020;BME280;3038;51.122;6.840;2023-04-09T09:06:39;102195.22;;;12.64;59.41
6020;BME280;3038;51.122;6.840;2023-04-09T09:09:13;102189.06;;;12.73;56.19
6020;BME280;3038;51.122;6.840;2023-04-09T09:11:43;102185.84;;;12.99;56.07
6020;BME280;3038;51.122;6.840;2023-04-09T09:14:14;102178.56;;;13.10;55.66
6020;BME280;3038;51.122;6.840;2023-04-09T09:16:43;102185.59;;;13.21;54.52
6020;BME280;3038;51.122;6.840;2023-04-09T09:19:30;102167.91;;;13.40;56.00
6020;BME280;3038;51.122;6.840;2023-04-09T09:22:06;102172.69;;;13.46;52.34
6020;BME280;3038;51.122;6.840;2023-04-09T09:24:33;102172.81;;;13.54;53.69
6020;BME280;3038;51.122;6.840;2023-04-09T09:27:00;102174.31;;;13.66;53.29
6020;BME280;3038;51.122;6.840;2023-04-09T09:29:26;102171.22;;;13.71;52.68
6020;BME280;3038;51.122;6.840;2023-04-09T09:31:53;102166.13;;;13.77;52.04
6020;BME280;3038;51.122;6.840;2023-04-09T09:34:20;102162.66;;;14.04;52.49
6020;BME280;3038;51.122;6.840;2023-04-09T09:36:46;102156.41;;;14.23;51.57
6020;BME280;3038;51.122;6.840;2023-04-09T09:39:13;102159.06;;;14.23;50.76
6020;BME280;3038;51.122;6.840;2023-04-09T09:41:39;102163.91;;;14.37;51.71
6020;BME280;3038;51.122;6.840;2023-04-09T09:44:09;102160.78;;;14.52;48.57
6020;BME280;3038;51.122;6.840;2023-04-09T09:46:39;102153.31;;;14.46;46.54
6020;BME280;3038;51.122;6.840;2023-04-09T09:49:06;102156.19;;;14.62;46.92
6020;BME280;3038;51.122;6.840;2023-04-09T09:51:34;102148.09;;;14.72;46.59
6020;BME280;3038;51.122;6.840;2023-04-09T09:54:01;102149.69;;;14.64;46.81
6020;BME280;3038;51.122;6.840;2023-04-09T09:56:38;102143.69;;;14.80;44.92
6020;BME280;3038;51.122;6.840;2023-04-09T09:59:14;102147.78;;;14.93;44.21
6020;BME280;3038;51.122;6.840;2023-04-09T10:01:40;102140.69;;;15.01;46.69
6020;BME280;3038;51.122;6.840;2023-04-09T10:04:08;102133.41;;;15.29;46.03
6020;BME280;3038;51.122;6.840;2023-04-09T10:06:39;102131.41;;;15.57;45.63
6020;BME280;3038;51.122;6.840;2023-04-09T10:09:07;102133.31;;;15.65;46.14
6020;BME280;3038;51.122;6.840;2023-04-09T10:11:35;102133.09;;;15.84;44.51
6020;BME280;3038;51.122;6.840;2023-04-09T10:14:02;102128.91;;;15.82;44.69
6020;BME280;3038;51.122;6.840;2023-04-09T10:16:29;102131.69;;;16.06;45.10
6020;BME280;3038;51.122;6.840;2023-04-09T10:18:56;102127.09;;;16.33;44.24
6020;BME280;3038;51.122;6.840;2023-04-09T10:21:31;102131.25;;;16.27;42.88
6020;BME280;3038;51.122;6.840;2023-04-09T10:23:59;102122.13;;;16.62;43.62
6020;BME280;3038;51.122;6.840;2023-04-09T10:26:33;102130.84;;;16.64;42.28
6020;BME280;3038;51.122;6.840;2023-04-09T10:29:10;102125.31;;;16.66;39.55
6020;BME280;3038;51.122;6.840;2023-04-09T10:31:52;102128.72;;;16.84;39.93
6020;BME280;3038;51.122;6.840;2023-04-09T10:34:23;102123.72;;;17.22;41.72
6020;BME280;3038;51.122;6.840;2023-04-09T10:36:54;102123.69;;;17.38;39.45
6020;BME280;3038;51.122;6.840;2023-04-09T10:39:26;102116.31;;;17.24;40.35
6020;BME280;3038;51.122;6.840;2023-04-09T10:41:53;102120.91;;;17.79;39.76
6020;BME280;3038;51.122;6.840;2023-04-09T10:44:24;102113.59;;;21.10;33.27
6020;BME280;3038;51.122;6.840;2023-04-09T10:46:54;102111.97;;;23.27;30.60
6020;BME280;3038;51.122;6.840;2023-04-09T10:49:21;102105.03;;;24.16;29.52
6020;BME280;3038;51.122;6.840;2023-04-09T10:59:34;102106.78;;;22.18;31.60
6020;BME280;3038;51.122;6.840;2023-04-09T11:02:00;102102.28;;;24.60;29.58
6020;BME280;3038;51.122;6.840;2023-04-09T11:04:54;102093.00;;;25.68;25.27
6020;BME280;3038;51.122;6.840;2023-04-09T11:07:24;102093.66;;;24.32;28.25
6020;BME280;3038;51.122;6.840;2023-04-09T11:09:52;102090.34;;;21.15;31.66
6020;BME280;3038;51.122;6.840;2023-04-09T11:12:17;102090.59;;;22.31;31.39
6020;BME280;3038;51.122;6.840;2023-04-09T11:14:43;102091.66;;;24.21;28.73
6020;BME280;3038;51.122;6.840;2023-04-09T11:17:08;102079.97;;;25.33;26.70
6020;BME280;3038;51.122;6.840;2023-04-09T11:19:34;102075.84;;;25.86;26.36
6020;BME280;3038;51.122;6.840;2023-04-09T11:21:59;102080.84;;;23.49;29.36
6020;BME280;3038;51.122;6.840;2023-04-09T11:24:25;102083.00;;;22.06;31.91
6020;BME280;3038;51.122;6.840;2023-04-09T11:26:50;102081.06;;;20.96;32.81
6020;BME280;3038;51.122;6.840;2023-04-09T11:29:15;102077.31;;;19.82;34.05
6020;BME280;3038;51.122;6.840;2023-04-09T11:31:45;102073.78;;;19.22;34.78
6020;BME280;3038;51.122;6.840;2023-04-09T11:34:10;102071.91;;;23.29;30.81
6020;BME280;3038;51.122;6.840;2023-04-09T11:36:41;102074.72;;;25.13;28.04
6020;BME280;3038;51.122;6.840;2023-04-09T11:39:06;102067.38;;;23.94;29.32
6020;BME280;3038;51.122;6.840;2023-04-09T11:43:57;102063.38;;;20.29;33.70
6020;BME280;3038;51.122;6.840;2023-04-09T11:46:23;102067.28;;;20.85;33.20
6020;BME280;3038;51.122;6.840;2023-04-09T11:48:51;102053.72;;;23.69;29.85
6020;BME280;3038;51.122;6.840;2023-04-09T11:51:19;102063.03;;;21.60;32.08
6020;BME280;3038;51.122;6.840;2023-04-09T11:53:47;102068.28;;;20.05;33.04
6020;BME280;3038;51.122;6.840;2023-04-09T11:56:13;102052.09;;;21.40;32.02
6020;BME280;3038;51.122;6.840;2023-04-09T11:58:46;102052.41;;;24.17;27.39
6020;BME280;3038;51.122;6.840;2023-04-09T12:01:12;102045.25;;;26.32;25.86
6020;BME280;3038;51.122;6.840;2023-04-09T12:03:38;102050.59;;;25.97;25.38
6020;BME280;3038;51.122;6.840;2023-04-09T12:06:04;102058.41;;;24.64;26.89
6020;BME280;3038;51.122;6.840;2023-04-09T12:08:32;102061.84;;;25.02;26.01
6020;BME280;3038;51.122;6.840;2023-04-09T12:11:13;102059.47;;;23.86;26.63
6020;BME280;3038;51.122;6.840;2023-04-09T12:13:39;102051.25;;;21.74;30.57
6020;BME280;3038;51.122;6.840;2023-04-09T12:16:09;102048.88;;;22.05;31.19
6020;BME280;3038;51.122;6.840;2023-04-09T12:18:38;102045.94;;;22.00;31.48
6020;BME280;3038;51.122;6.840;2023-04-09T12:21:04;102048.19;;;25.34;27.38
6020;BME280;3038;51.122;6.840;2023-04-09T12:23:30;102050.53;;;27.23;25.12
6020;BME280;3038;51.122;6.840;2023-04-09T12:25:58;102034.56;;;26.19;25.17
6020;BME280;3038;51.122;6.840;2023-04-09T12:28:27;102039.53;;;25.19;26.18
6020;BME280;3038;51.122;6.840;2023-04-09T12:30:53;102041.22;;;24.06;26.87
6020;BME280;3038;51.122;6.840;2023-04-09T12:33:19;102036.25;;;24.67;26.64
6020;BME280;3038;51.122;6.840;2023-04-09T12:35:47;102037.25;;;24.47;26.91
6020;BME280;3038;51.122;6.840;2023-04-09T12:38:13;102033.59;;;26.44;25.09
6020;BME280;3038;51.122;6.840;2023-04-09T12:40:38;102033.66;;;26.79;25.01
6020;BME280;3038;51.122;6.840;2023-04-09T12:43:04;102034.50;;;27.90;23.74
6020;BME280;3038;51.122;6.840;2023-04-09T12:45:30;102033.44;;;27.15;24.18
6020;BME280;3038;51.122;6.840;2023-04-09T12:47:56;102042.97;;;26.48;24.25
6020;BME280;3038;51.122;6.840;2023-04-09T12:50:24;102035.16;;;25.18;25.70
6020;BME280;3038;51.122;6.840;2023-04-09T12:52:50;102031.13;;;26.54;24.78
6020;BME280;3038;51.122;6.840;2023-04-09T12:55:15;102032.00;;;27.25;23.77
6020;BME280;3038;51.122;6.840;2023-04-09T12:57:42;102023.94;;;25.51;24.79
6020;BME280;3038;51.122;6.840;2023-04-09T13:00:09;102033.69;;;24.72;25.64
6020;BME280;3038;51.122;6.840;2023-04-09T13:02:35;102033.69;;;24.08;27.42
6020;BME280;3038;51.122;6.840;2023-04-09T13:05:00;102025.53;;;25.40;25.74
6020;BME280;3038;51.122;6.840;2023-04-09T13:07:26;102024.25;;;24.49;26.48
6020;BME280;3038;51.122;6.840;2023-04-09T13:09:56;102029.75;;;22.14;29.48
6020;BME280;3038;51.122;6.840;2023-04-09T13:12:22;102021.56;;;21.11;30.65
6020;BME280;3038;51.122;6.840;2023-04-09T13:14:48;102023.56;;;21.30;30.05
6020;BME280;3038;51.122;6.840;2023-04-09T13:17:16;102018.03;;;21.87;30.05
6020;BME280;3038;51.122;6.840;2023-04-09T13:19:41;102025.09;;;21.81;30.51
6020;BME280;3038;51.122;6.840;2023-04-09T13:22:07;102017.94;;;23.21;29.00
6020;BME280;3038;51.122;6.840;2023-04-09T13:24:35;102016.25;;;21.66;31.26
6020;BME280;3038;51.122;6.840;2023-04-09T13:27:04;102028.66;;;20.63;31.83
6020;BME280;3038;51.122;6.840;2023-04-09T13:29:30;102021.81;;;20.24;32.06
6020;BME280;3038;51.122;6.840;2023-04-09T13:31:56;102008.78;;;23.22;29.59
6020;BME280;3038;51.122;6.840;2023-04-09T13:34:22;102014.81;;;23.24;28.77